sensor_id;sensor_type;location;lat;lon;timestamp;temperature;humidity
16384;DHT22;8301;51.440;6.610;2022-07-23T00:01:30;17.20;99.90
16384;DHT22;8301;51.440;6.610;2022-07-23T00:03:57;17.30;99.90
16384;DHT22;8301;51.440;6.610;2022-07-23T00:06:24;17.30;99.90
16384;DHT22;8301;51.440;6.610;2022-07-23T00:08:51;17.30;99.90
16384;DHT22;8301;51.440;6.610;2022-07-23T00:11:18;17.40;99.90
16384;DHT22;8301;51.440;6.610;2022-07-23T00:13:45;17.40;99.90
16384;DHT22;8301;51.440;6.610;2022-07-23T00:16:12;17.30;99.90
16384;DHT22;8301;51.440;6.610;2022-07-23T00:18:38;17.30;99.90
16384;DHT22;8301;51.440;6.610;2022-07-23T00:21:06;17.30;99.90
16384;DHT22;8301;51.440;6.610;2022-07-23T00:23:33;17.30;99.90
16384;DHT22;8301;51.440;6.610;2022-07-23T00:26:01;17.30;99.90
16384;DHT22;8301;51.440;6.610;2022-07-23T00:28:28;17.30;99.90
16384;DHT22;8301;51.440;6.610;2022-07-23T00:30:56;17.20;99.90
16384;DHT22;8301;51.440;6.610;2022-07-23T00:33:22;17.20;99.90
16384;DHT22;8301;51.440;6.610;2022-07-23T00:35:49;17.20;99.90
16384;DHT22;8301;51.440;6.610;2022-07-23T00:38:16;17.10;99.90
16384;DHT22;8301;51.440;6.610;2022-07-23T00:40:43;17.00;99.90
16384;DHT22;8301;51.440;6.610;2022-07-23T00:43:10;17.00;99.90
16384;DHT22;8301;51.440;6.610;2022-07-23T00:45:36;17.00;99.90
16384;DHT22;8301;51.440;6.610;2022-07-23T00:48:03;16.90;99.90
16384;DHT22;8301;51.440;6.610;2022-07-23T00:50:30;16.90;99.90
16384;DHT22;8301;51.440;6.610;2022-07-23T00:52:57;17.00;99.90
16384;DHT22;8301;51.440;6.610;2022-07-23T00:55:24;16.80;99.90
16384;DHT22;8301;51.440;6.610;2022-07-23T00:57:51;16.70;99.90
16384;DHT22;8301;51.440;6.610;2022-07-23T01:00:19;16.70;99.90
16384;DHT22;8301;51.440;6.610;2022-07-23T01:02:45;16.70;99.90
16384;DHT22;8301;51.440;6.610;2022-07-23T01:05:12;16.70;99.90
16384;DHT22;8301;51.440;6.610;2022-07-23T01:07:39;16.70;99.90
16384;DHT22;8301;51.440;6.610;2022-07-23T01:10:07;16.70;99.90
16384;DHT22;8301;51.440;6.610;2022-07-23T01:12:35;16.70;99.90
16384;DHT22;8301;51.440;6.610;2022-07-23T01:15:02;16.70;99.90
16384;DHT22;8301;51.440;6.610;2022-07-23T01:17:29;16.70;99.90
16384;DHT22;8301;51.440;6.610;2022-07-23T01:19:57;16.70;99.90
16384;DHT22;8301;51.440;6.610;2022-07-23T01:22:28;16.70;99.90
16384;DHT22;8301;51.440;6.610;2022-07-23T01:24:52;16.70;99.90
16384;DHT22;8301;51.440;6.610;2022-07-23T01:27:19;16.70;99.90
16384;DHT22;8301;51.440;6.610;2022-07-23T01:29:46;16.60;99.90
16384;DHT22;8301;51.440;6.610;2022-07-23T01:32:13;16.60;99.90
16384;DHT22;8301;51.440;6.610;2022-07-23T01:34:41;16.60;99.90
16384;DHT22;8301;51.440;6.610;2022-07-23T01:37:08;16.60;99.90
16384;DHT22;8301;51.440;6.610;2022-07-23T01:39:35;16.60;99.90
16384;DHT22;8301;51.440;6.610;2022-07-23T01:42:01;16.50;99.90
16384;DHT22;8301;51.440;6.610;2022-07-23T01:44:29;16.50;99.90
16384;DHT22;8301;51.440;6.610;2022-07-23T01:46:56;16.40;99.90
16384;DHT22;8301;51.440;6.610;2022-07-23T01:49:23;16.20;99.90
16384;DHT22;8301;51.440;6.610;2022-07-23T01:51:50;16.30;99.90
16384;DHT22;8301;51.440;6.610;2022-07-23T01:54:29;16.20;99.90
16384;DHT22;8301;51.440;6.610;2022-07-23T01:56:56;16.20;99.90
16384;DHT22;8301;51.440;6.610;2022-07-23T01:59:24;16.20;99.90
16384;DHT22;8301;51.440;6.610;2022-07-23T02:01:51;16.20;99.90
16384;DHT22;8301;51.440;6.610;2022-07-23T02:04:25;16.10;99.90
16384;DHT22;8301;51.440;6.610;2022-07-23T02:06:52;16.10;99.90
16384;DHT22;8301;51.440;6.610;2022-07-23T02:09:19;16.10;99.90
16384;DHT22;8301;51.440;6.610;2022-07-23T02:11:46;16.00;99.90
16384;DHT22;8301;51.440;6.610;2022-07-23T02:14:13;16.00;99.90
16384;DHT22;8301;51.440;6.610;2022-07-23T02:16:40;15.90;99.90
16384;DHT22;8301;51.440;6.610;2022-07-23T02:19:06;15.90;99.90
16384;DHT22;8301;51.440;6.610;2022-07-23T02:21:33;15.90;99.90
16384;DHT22;8301;51.440;6.610;2022-07-23T02:24:00;15.90;99.90
16384;DHT22;8301;51.440;6.610;2022-07-23T02:26:27;15.90;99.90
16384;DHT22;8301;51.440;6.610;2022-07-23T02:28:54;15.90;99.90
16384;DHT22;8301;51.440;6.610;2022-07-23T02:31:20;15.90;99.90
16384;DHT22;8301;51.440;6.610;2022-07-23T02:33:48;15.80;99.90
16384;DHT22;8301;51.440;6.610;2022-07-23T02:36:15;15.80;99.90
16384;DHT22;8301;51.440;6.610;2022-07-23T02:38:44;15.80;99.90
16384;DHT22;8301;51.440;6.610;2022-07-23T02:41:11;15.80;99.90
16384;DHT22;8301;51.440;6.610;2022-07-23T02:43:38;15.80;99.90
16384;DHT22;8301;51.440;6.610;2022-07-23T02:46:05;15.70;99.90
16384;DHT22;8301;51.440;6.610;2022-07-23T02:48:31;15.70;99.90
16384;DHT22;8301;51.440;6.610;2022-07-23T02:50:58;15.60;99.90
16384;DHT22;8301;51.440;6.610;2022-07-23T02:53:25;15.60;99.90
16384;DHT22;8301;51.440;6.610;2022-07-23T02:55:52;15.60;99.90
16384;DHT22;8301;51.440;6.610;2022-07-23T02:58:19;15.60;99.90
16384;DHT22;8301;51.440;6.610;2022-07-23T03:00:46;15.60;99.90
16384;DHT22;8301;51.440;6.610;2022-07-23T03:03:12;15.60;99.90
16384;DHT22;8301;51.440;6.610;2022-07-23T03:05:39;15.50;99.90
16384;DHT22;8301;51.440;6.610;2022-07-23T03:08:12;15.50;99.90
16384;DHT22;8301;51.440;6.610;2022-07-23T03:10:39;15.40;99.90
16384;DHT22;8301;51.440;6.610;2022-07-23T03:13:06;15.40;99.90
16384;DHT22;8301;51.440;6.610;2022-07-23T03:15:33;15.40;99.90
16384;DHT22;8301;51.440;6.610;2022-07-23T03:17:59;15.30;99.90
16384;DHT22;8301;51.440;6.610;2022-07-23T03:20:26;15.30;99.90
16384;DHT22;8301;51.440;6.610;2022-07-23T03:22:53;15.20;99.90
16384;DHT22;8301;51.440;6.610;2022-07-23T03:25:20;15.20;99.90
16384;DHT22;8301;51.440;6.610;2022-07-23T03:27:47;15.20;99.90
16384;DHT22;8301;51.440;6.610;2022-07-23T03:30:13;15.10;99.90
16384;DHT22;8301;51.440;6.610;2022-07-23T03:32:41;15.10;99.90
16384;DHT22;8301;51.440;6.610;2022-07-23T03:35:08;15.10;99.90
16384;DHT22;8301;51.440;6.610;2022-07-23T03:37:35;15.00;99.90
16384;DHT22;8301;51.440;6.610;2022-07-23T03:40:02;15.00;99.90
16384;DHT22;8301;51.440;6.610;2022-07-23T03:42:29;15.00;99.90
16384;DHT22;8301;51.440;6.610;2022-07-23T03:44:56;14.90;99.90
16384;DHT22;8301;51.440;6.610;2022-07-23T03:47:22;14.90;99.90
16384;DHT22;8301;51.440;6.610;2022-07-23T03:49:49;14.80;99.90
16384;DHT22;8301;51.440;6.610;2022-07-23T03:52:17;14.80;99.90
16384;DHT22;8301;51.440;6.610;2022-07-23T03:54:44;14.80;99.90
16384;DHT22;8301;51.440;6.610;2022-07-23T03:57:11;14.70;99.90
16384;DHT22;8301;51.440;6.610;2022-07-23T03:59:37;14.70;99.90
16384;DHT22;8301;51.440;6.610;2022-07-23T04:02:04;14.70;99.90
16384;DHT22;8301;51.440;6.610;2022-07-23T04:04:31;14.70;99.90
16384;DHT22;8301;51.440;6.610;2022-07-23T04:06:58;14.70;99.90
16384;DHT22;8301;51.440;6.610;2022-07-23T04:09:25;14.70;99.90
16384;DHT22;8301;51.440;6.610;2022-07-23T04:11:51;14.70;99.90
16384;DHT22;8301;51.440;6.610;2022-07-23T04:14:18;14.70;99.90
16384;DHT22;8301;51.440;6.610;2022-07-23T04:16:45;14.70;99.90
16384;DHT22;8301;51.440;6.610;2022-07-23T04:19:12;14.70;99.90
16384;DHT22;8301;51.440;6.610;2022-07-23T04:21:39;14.70;99.90
16384;DHT22;8301;51.440;6.610;2022-07-23T04:24:05;14.70;99.90
16384;DHT22;8301;51.440;6.610;2022-07-23T04:26:32;14.70;99.90
16384;DHT22;8301;51.440;6.610;2022-07-23T04:28:59;14.70;99.90
16384;DHT22;8301;51.440;6.610;2022-07-23T04:31:26;14.80;99.90
16384;DHT22;8301;51.440;6.610;2022-07-23T04:33:53;14.80;99.90
16384;DHT22;8301;51.440;6.610;2022-07-23T04:36:19;14.80;99.90
16384;DHT22;8301;51.440;6.610;2022-07-23T04:38:47;14.80;99.90
16384;DHT22;8301;51.440;6.610;2022-07-23T04:41:14;14.80;99.90
16384;DHT22;8301;51.440;6.610;2022-07-23T04:43:47;14.90;99.90
16384;DHT22;8301;51.440;6.610;2022-07-23T04:46:13;14.90;99.90
16384;DHT22;8301;51.440;6.610;2022-07-23T04:48:48;14.90;99.90
16384;DHT22;8301;51.440;6.610;2022-07-23T04:51:15;15.00;99.90
16384;DHT22;8301;51.440;6.610;2022-07-23T04:53:42;15.00;99.90
16384;DHT22;8301;51.440;6.610;2022-07-23T04:56:09;15.10;99.90
16384;DHT22;8301;51.440;6.610;2022-07-23T04:58:36;15.20;99.90
16384;DHT22;8301;51.440;6.610;2022-07-23T05:01:03;15.30;99.90
16384;DHT22;8301;51.440;6.610;2022-07-23T05:03:31;15.50;99.90
16384;DHT22;8301;51.440;6.610;2022-07-23T05:08:33;15.90;99.90
16384;DHT22;8301;51.440;6.610;2022-07-23T05:11:00;16.10;99.90
16384;DHT22;8301;51.440;6.610;2022-07-23T05:13:27;16.20;99.90
16384;DHT22;8301;51.440;6.610;2022-07-23T05:15:53;16.30;99.90
16384;DHT22;8301;51.440;6.610;2022-07-23T05:18:20;16.40;99.90
16384;DHT22;8301;51.440;6.610;2022-07-23T05:20:53;16.40;99.90
16384;DHT22;8301;51.440;6.610;2022-07-23T05:23:23;16.30;99.90
16384;DHT22;8301;51.440;6.610;2022-07-23T05:25:50;16.50;99.90
16384;DHT22;8301;51.440;6.610;2022-07-23T05:28:17;16.80;99.90
16384;DHT22;8301;51.440;6.610;2022-07-23T05:30:44;16.90;99.90
16384;DHT22;8301;51.440;6.610;2022-07-23T05:33:11;17.20;99.90
16384;DHT22;8301;51.440;6.610;2022-07-23T05:35:37;17.30;99.90
16384;DHT22;8301;51.440;6.610;2022-07-23T05:38:05;17.40;99.90
16384;DHT22;8301;51.440;6.610;2022-07-23T05:40:32;17.40;99.90
16384;DHT22;8301;51.440;6.610;2022-07-23T05:42:59;17.60;99.90
16384;DHT22;8301;51.440;6.610;2022-07-23T05:45:26;17.70;99.90
16384;DHT22;8301;51.440;6.610;2022-07-23T05:47:52;17.60;99.90
16384;DHT22;8301;51.440;6.610;2022-07-23T05:50:19;17.50;99.90
16384;DHT22;8301;51.440;6.610;2022-07-23T05:52:46;17.60;99.90
16384;DHT22;8301;51.440;6.610;2022-07-23T05:55:13;17.60;99.90
16384;DHT22;8301;51.440;6.610;2022-07-23T05:57:41;17.50;99.90
16384;DHT22;8301;51.440;6.610;2022-07-23T06:00:08;17.60;99.90
16384;DHT22;8301;51.440;6.610;2022-07-23T06:02:36;17.90;99.90
16384;DHT22;8301;51.440;6.610;2022-07-23T06:05:03;17.90;99.90
16384;DHT22;8301;51.440;6.610;2022-07-23T06:09:57;18.20;99.90
16384;DHT22;8301;51.440;6.610;2022-07-23T06:12:24;18.20;99.90
16384;DHT22;8301;51.440;6.610;2022-07-23T06:14:51;17.90;99.90
16384;DHT22;8301;51.440;6.610;2022-07-23T06:17:18;18.00;99.90
16384;DHT22;8301;51.440;6.610;2022-07-23T06:19:45;18.00;99.90
16384;DHT22;8301;51.440;6.610;2022-07-23T06:22:12;17.90;99.90
16384;DHT22;8301;51.440;6.610;2022-07-23T06:24:39;17.90;99.90
16384;DHT22;8301;51.440;6.610;2022-07-23T06:27:05;17.70;99.90
16384;DHT22;8301;51.440;6.610;2022-07-23T06:29:32;17.60;99.90
16384;DHT22;8301;51.440;6.610;2022-07-23T06:31:59;17.90;99.90
16384;DHT22;8301;51.440;6.610;2022-07-23T06:34:26;17.70;99.90
16384;DHT22;8301;51.440;6.610;2022-07-23T06:36:52;17.70;99.90
16384;DHT22;8301;51.440;6.610;2022-07-23T06:39:19;17.70;99.90
16384;DHT22;8301;51.440;6.610;2022-07-23T06:41:46;17.80;99.90
16384;DHT22;8301;51.440;6.610;2022-07-23T06:44:13;17.90;99.90
16384;DHT22;8301;51.440;6.610;2022-07-23T06:46:41;18.00;99.90
16384;DHT22;8301;51.440;6.610;2022-07-23T06:49:08;18.10;99.90
16384;DHT22;8301;51.440;6.610;2022-07-23T06:51:35;18.10;99.90
16384;DHT22;8301;51.440;6.610;2022-07-23T06:54:02;18.20;99.90
16384;DHT22;8301;51.440;6.610;2022-07-23T06:56:29;18.30;99.90
16384;DHT22;8301;51.440;6.610;2022-07-23T06:58:56;18.50;99.90
16384;DHT22;8301;51.440;6.610;2022-07-23T07:01:23;18.60;99.90
16384;DHT22;8301;51.440;6.610;2022-07-23T07:03:49;18.50;99.90
16384;DHT22;8301;51.440;6.610;2022-07-23T07:06:17;18.40;99.90
16384;DHT22;8301;51.440;6.610;2022-07-23T07:08:44;18.50;99.90
16384;DHT22;8301;51.440;6.610;2022-07-23T07:11:12;18.70;99.90
16384;DHT22;8301;51.440;6.610;2022-07-23T07:13:39;18.60;99.90
16384;DHT22;8301;51.440;6.610;2022-07-23T07:16:05;18.50;99.90
16384;DHT22;8301;51.440;6.610;2022-07-23T07:18:32;18.50;99.90
16384;DHT22;8301;51.440;6.610;2022-07-23T07:20:59;18.60;99.90
16384;DHT22;8301;51.440;6.610;2022-07-23T07:23:26;18.70;99.90
16384;DHT22;8301;51.440;6.610;2022-07-23T07:25:53;18.70;99.90
16384;DHT22;8301;51.440;6.610;2022-07-23T07:28:19;18.70;99.90
16384;DHT22;8301;51.440;6.610;2022-07-23T07:30:46;18.80;99.90
16384;DHT22;8301;51.440;6.610;2022-07-23T07:33:14;18.90;99.90
16384;DHT22;8301;51.440;6.610;2022-07-23T07:35:41;18.90;99.90
16384;DHT22;8301;51.440;6.610;2022-07-23T07:38:07;18.80;99.90
16384;DHT22;8301;51.440;6.610;2022-07-23T07:40:34;18.90;99.90
16384;DHT22;8301;51.440;6.610;2022-07-23T07:43:01;18.90;99.90
16384;DHT22;8301;51.440;6.610;2022-07-23T07:45:29;19.00;99.90
16384;DHT22;8301;51.440;6.610;2022-07-23T07:47:56;19.00;99.90
16384;DHT22;8301;51.440;6.610;2022-07-23T07:50:23;18.90;99.90
16384;DHT22;8301;51.440;6.610;2022-07-23T07:52:50;19.00;99.90
16384;DHT22;8301;51.440;6.610;2022-07-23T07:55:17;19.20;99.90
16384;DHT22;8301;51.440;6.610;2022-07-23T07:57:43;19.30;99.90
16384;DHT22;8301;51.440;6.610;2022-07-23T08:00:10;19.20;99.90
16384;DHT22;8301;51.440;6.610;2022-07-23T08:02:41;19.30;99.90
16384;DHT22;8301;51.440;6.610;2022-07-23T08:05:08;19.40;99.90
16384;DHT22;8301;51.440;6.610;2022-07-23T08:07:36;19.40;99.90
16384;DHT22;8301;51.440;6.610;2022-07-23T08:10:05;19.40;99.90
16384;DHT22;8301;51.440;6.610;2022-07-23T08:12:40;19.50;99.90
16384;DHT22;8301;51.440;6.610;2022-07-23T08:15:14;19.60;99.90
16384;DHT22;8301;51.440;6.610;2022-07-23T08:17:41;19.70;99.90
16384;DHT22;8301;51.440;6.610;2022-07-23T08:20:11;19.70;99.90
16384;DHT22;8301;51.440;6.610;2022-07-23T08:22:46;19.70;99.90
16384;DHT22;8301;51.440;6.610;2022-07-23T08:25:14;19.70;99.90
16384;DHT22;8301;51.440;6.610;2022-07-23T08:27:41;19.80;99.90
16384;DHT22;8301;51.440;6.610;2022-07-23T08:30:08;19.90;99.90
16384;DHT22;8301;51.440;6.610;2022-07-23T08:35:26;20.30;99.90
16384;DHT22;8301;51.440;6.610;2022-07-23T08:37:49;20.50;99.90
16384;DHT22;8301;51.440;6.610;2022-07-23T08:40:19;20.50;99.90
16384;DHT22;8301;51.440;6.610;2022-07-23T08:42:49;20.50;99.90
16384;DHT22;8301;51.440;6.610;2022-07-23T08:45:17;20.60;99.90
16384;DHT22;8301;51.440;6.610;2022-07-23T08:47:45;20.60;99.90
16384;DHT22;8301;51.440;6.610;2022-07-23T08:50:12;20.80;99.90
16384;DHT22;8301;51.440;6.610;2022-07-23T08:52:40;21.00;99.90
16384;DHT22;8301;51.440;6.610;2022-07-23T08:55:07;21.00;99.90
16384;DHT22;8301;51.440;6.610;2022-07-23T08:57:34;20.90;99.90
16384;DHT22;8301;51.440;6.610;2022-07-23T09:00:02;21.40;99.90
16384;DHT22;8301;51.440;6.610;2022-07-23T09:02:30;21.40;99.90
16384;DHT22;8301;51.440;6.610;2022-07-23T09:05:00;21.60;99.90
16384;DHT22;8301;51.440;6.610;2022-07-23T09:07:25;21.90;99.90
16384;DHT22;8301;51.440;6.610;2022-07-23T09:10:11;22.20;99.90
16384;DHT22;8301;51.440;6.610;2022-07-23T09:12:25;22.30;99.90
16384;DHT22;8301;51.440;6.610;2022-07-23T09:14:52;22.10;99.90
16384;DHT22;8301;51.440;6.610;2022-07-23T09:17:19;22.40;99.90
16384;DHT22;8301;51.440;6.610;2022-07-23T09:19:47;22.60;99.90
16384;DHT22;8301;51.440;6.610;2022-07-23T09:22:21;22.60;99.90
16384;DHT22;8301;51.440;6.610;2022-07-23T09:30:13;23.00;99.90
16384;DHT22;8301;51.440;6.610;2022-07-23T09:32:40;22.90;99.90
16384;DHT22;8301;51.440;6.610;2022-07-23T09:35:08;22.90;99.90
16384;DHT22;8301;51.440;6.610;2022-07-23T09:37:35;23.00;99.90
16384;DHT22;8301;51.440;6.610;2022-07-23T09:40:10;23.00;99.90
16384;DHT22;8301;51.440;6.610;2022-07-23T09:42:33;23.00;99.90
16384;DHT22;8301;51.440;6.610;2022-07-23T09:45:00;23.20;99.90
16384;DHT22;8301;51.440;6.610;2022-07-23T09:47:28;22.80;99.90
16384;DHT22;8301;51.440;6.610;2022-07-23T09:49:59;22.30;99.90
16384;DHT22;8301;51.440;6.610;2022-07-23T09:52:31;22.80;99.90
16384;DHT22;8301;51.440;6.610;2022-07-23T09:55:00;23.30;99.90
16384;DHT22;8301;51.440;6.610;2022-07-23T09:57:27;23.60;99.90
16384;DHT22;8301;51.440;6.610;2022-07-23T09:59:56;23.70;99.90
16384;DHT22;8301;51.440;6.610;2022-07-23T10:02:23;23.60;99.90
16384;DHT22;8301;51.440;6.610;2022-07-23T10:04:51;23.30;99.90
16384;DHT22;8301;51.440;6.610;2022-07-23T10:07:23;23.60;99.90
16384;DHT22;8301;51.440;6.610;2022-07-23T10:09:52;23.80;99.90
16384;DHT22;8301;51.440;6.610;2022-07-23T10:12:19;23.80;99.90
16384;DHT22;8301;51.440;6.610;2022-07-23T10:15:04;23.80;99.90
16384;DHT22;8301;51.440;6.610;2022-07-23T10:17:34;24.00;99.90
16384;DHT22;8301;51.440;6.610;2022-07-23T10:20:02;23.70;99.90
16384;DHT22;8301;51.440;6.610;2022-07-23T10:22:53;23.90;99.90
16384;DHT22;8301;51.440;6.610;2022-07-23T10:30:16;24.70;99.90
16384;DHT22;8301;51.440;6.610;2022-07-23T10:35:50;24.70;99.90
16384;DHT22;8301;51.440;6.610;2022-07-23T10:41:02;24.80;99.90
16384;DHT22;8301;51.440;6.610;2022-07-23T10:43:26;24.90;99.90
16384;DHT22;8301;51.440;6.610;2022-07-23T10:45:53;24.80;99.90
16384;DHT22;8301;51.440;6.610;2022-07-23T10:48:29;24.90;99.90
16384;DHT22;8301;51.440;6.610;2022-07-23T10:51:12;24.80;99.90
16384;DHT22;8301;51.440;6.610;2022-07-23T10:59:04;24.60;99.90
16384;DHT22;8301;51.440;6.610;2022-07-23T11:01:32;25.00;99.90
16384;DHT22;8301;51.440;6.610;2022-07-23T11:04:00;25.00;99.90
16384;DHT22;8301;51.440;6.610;2022-07-23T11:09:24;25.40;99.90
16384;DHT22;8301;51.440;6.610;2022-07-23T11:17:26;25.30;99.90
16384;DHT22;8301;51.440;6.610;2022-07-23T11:25:14;25.30;99.90
16384;DHT22;8301;51.440;6.610;2022-07-23T11:27:42;25.10;99.90
16384;DHT22;8301;51.440;6.610;2022-07-23T11:35:40;25.10;99.90
16384;DHT22;8301;51.440;6.610;2022-07-23T11:40:34;25.20;99.90
16384;DHT22;8301;51.440;6.610;2022-07-23T11:43:02;25.30;99.90
16384;DHT22;8301;51.440;6.610;2022-07-23T11:45:31;25.60;99.90
16384;DHT22;8301;51.440;6.610;2022-07-23T11:47:58;25.60;99.90
16384;DHT22;8301;51.440;6.610;2022-07-23T11:50:25;25.60;99.90
16384;DHT22;8301;51.440;6.610;2022-07-23T11:52:53;25.50;99.90
16384;DHT22;8301;51.440;6.610;2022-07-23T11:55:21;25.70;99.90
16384;DHT22;8301;51.440;6.610;2022-07-23T12:00:24;25.70;99.90
16384;DHT22;8301;51.440;6.610;2022-07-23T12:02:48;25.40;99.90
16384;DHT22;8301;51.440;6.610;2022-07-23T12:05:16;25.60;99.90
16384;DHT22;8301;51.440;6.610;2022-07-23T12:07:44;26.00;99.90
16384;DHT22;8301;51.440;6.610;2022-07-23T12:13:15;26.10;99.90
16384;DHT22;8301;51.440;6.610;2022-07-23T12:15:27;26.10;99.90
16384;DHT22;8301;51.440;6.610;2022-07-23T12:18:15;26.00;99.90
16384;DHT22;8301;51.440;6.610;2022-07-23T12:20:50;25.80;99.90
16384;DHT22;8301;51.440;6.610;2022-07-23T12:23:18;26.00;99.90
16384;DHT22;8301;51.440;6.610;2022-07-23T12:25:47;26.00;99.90
16384;DHT22;8301;51.440;6.610;2022-07-23T12:30:45;26.10;99.90
16384;DHT22;8301;51.440;6.610;2022-07-23T12:33:13;26.10;99.90
16384;DHT22;8301;51.440;6.610;2022-07-23T12:35:44;24.80;99.90
16384;DHT22;8301;51.440;6.610;2022-07-23T12:40:59;24.40;99.90
16384;DHT22;8301;51.440;6.610;2022-07-23T12:49:06;25.10;99.90
16384;DHT22;8301;51.440;6.610;2022-07-23T12:51:35;25.60;99.90
16384;DHT22;8301;51.440;6.610;2022-07-23T12:54:06;25.70;99.90
16384;DHT22;8301;51.440;6.610;2022-07-23T12:56:40;25.60;99.90
16384;DHT22;8301;51.440;6.610;2022-07-23T12:59:09;26.10;99.90
16384;DHT22;8301;51.440;6.610;2022-07-23T13:01:37;26.10;99.90
16384;DHT22;8301;51.440;6.610;2022-07-23T13:04:13;26.00;99.90
16384;DHT22;8301;51.440;6.610;2022-07-23T13:09:07;25.40;99.90
16384;DHT22;8301;51.440;6.610;2022-07-23T13:11:50;25.30;99.90
16384;DHT22;8301;51.440;6.610;2022-07-23T13:17:05;25.90;99.90
16384;DHT22;8301;51.440;6.610;2022-07-23T13:19:35;26.20;99.90
16384;DHT22;8301;51.440;6.610;2022-07-23T13:22:03;26.30;99.90
16384;DHT22;8301;51.440;6.610;2022-07-23T13:24:35;26.30;99.90
16384;DHT22;8301;51.440;6.610;2022-07-23T13:27:02;26.50;99.90
16384;DHT22;8301;51.440;6.610;2022-07-23T13:29:32;26.50;99.90
16384;DHT22;8301;51.440;6.610;2022-07-23T13:31:59;26.50;99.90
16384;DHT22;8301;51.440;6.610;2022-07-23T13:34:26;26.90;99.90
16384;DHT22;8301;51.440;6.610;2022-07-23T13:36:53;26.90;99.90
16384;DHT22;8301;51.440;6.610;2022-07-23T13:39:20;27.20;99.90
16384;DHT22;8301;51.440;6.610;2022-07-23T13:41:47;27.10;99.90
16384;DHT22;8301;51.440;6.610;2022-07-23T13:44:13;27.20;99.90
16384;DHT22;8301;51.440;6.610;2022-07-23T13:46:40;27.10;99.90
16384;DHT22;8301;51.440;6.610;2022-07-23T13:49:07;27.10;99.90
16384;DHT22;8301;51.440;6.610;2022-07-23T13:51:40;26.80;99.90
16384;DHT22;8301;51.440;6.610;2022-07-23T13:54:07;27.00;99.90
16384;DHT22;8301;51.440;6.610;2022-07-23T13:56:46;27.10;99.90
16384;DHT22;8301;51.440;6.610;2022-07-23T13:59:17;27.30;99.90
16384;DHT22;8301;51.440;6.610;2022-07-23T14:01:44;27.10;99.90
16384;DHT22;8301;51.440;6.610;2022-07-23T14:04:11;27.10;99.90
16384;DHT22;8301;51.440;6.610;2022-07-23T14:06:39;26.90;99.90
16384;DHT22;8301;51.440;6.610;2022-07-23T14:09:06;27.20;99.90
16384;DHT22;8301;51.440;6.610;2022-07-23T14:11:33;26.90;99.90
16384;DHT22;8301;51.440;6.610;2022-07-23T14:13:59;27.00;99.90
16384;DHT22;8301;51.440;6.610;2022-07-23T14:16:29;26.80;99.90
16384;DHT22;8301;51.440;6.610;2022-07-23T14:18:56;26.80;99.90
16384;DHT22;8301;51.440;6.610;2022-07-23T14:21:23;26.80;99.90
16384;DHT22;8301;51.440;6.610;2022-07-23T14:26:24;27.20;99.90
16384;DHT22;8301;51.440;6.610;2022-07-23T14:28:57;27.30;99.90
16384;DHT22;8301;51.440;6.610;2022-07-23T14:31:24;27.00;99.90
16384;DHT22;8301;51.440;6.610;2022-07-23T14:33:51;27.20;99.90
16384;DHT22;8301;51.440;6.610;2022-07-23T14:36:18;27.30;99.90
16384;DHT22;8301;51.440;6.610;2022-07-23T14:38:45;27.30;99.90
16384;DHT22;8301;51.440;6.610;2022-07-23T14:41:12;26.80;99.90
16384;DHT22;8301;51.440;6.610;2022-07-23T14:43:39;26.40;99.90
16384;DHT22;8301;51.440;6.610;2022-07-23T14:46:05;26.40;99.90
16384;DHT22;8301;51.440;6.610;2022-07-23T14:48:32;26.60;99.90
16384;DHT22;8301;51.440;6.610;2022-07-23T14:53:28;27.20;99.90
16384;DHT22;8301;51.440;6.610;2022-07-23T14:56:04;27.30;99.90
16384;DHT22;8301;51.440;6.610;2022-07-23T14:58:30;26.90;99.90
16384;DHT22;8301;51.440;6.610;2022-07-23T15:00:58;26.90;99.90
16384;DHT22;8301;51.440;6.610;2022-07-23T15:03:25;26.70;99.90
16384;DHT22;8301;51.440;6.610;2022-07-23T15:05:52;26.70;99.90
16384;DHT22;8301;51.440;6.610;2022-07-23T15:08:18;26.60;99.90
16384;DHT22;8301;51.440;6.610;2022-07-23T15:10:45;26.60;99.90
16384;DHT22;8301;51.440;6.610;2022-07-23T15:13:12;26.60;99.90
16384;DHT22;8301;51.440;6.610;2022-07-23T15:15:39;26.70;99.90
16384;DHT22;8301;51.440;6.610;2022-07-23T15:18:09;26.80;99.90
16384;DHT22;8301;51.440;6.610;2022-07-23T15:20:45;26.60;99.90
16384;DHT22;8301;51.440;6.610;2022-07-23T15:23:10;26.50;99.90
16384;DHT22;8301;51.440;6.610;2022-07-23T15:25:38;26.80;99.90
16384;DHT22;8301;51.440;6.610;2022-07-23T15:28:05;26.80;99.90
16384;DHT22;8301;51.440;6.610;2022-07-23T15:30:38;26.60;99.90
16384;DHT22;8301;51.440;6.610;2022-07-23T15:33:05;26.80;99.90
16384;DHT22;8301;51.440;6.610;2022-07-23T15:40:59;26.50;99.90
16384;DHT22;8301;51.440;6.610;2022-07-23T15:43:26;26.60;99.90
16384;DHT22;8301;51.440;6.610;2022-07-23T15:45:53;26.30;99.90
16384;DHT22;8301;51.440;6.610;2022-07-23T15:48:20;26.40;99.90
16384;DHT22;8301;51.440;6.610;2022-07-23T15:50:47;26.50;99.90
16384;DHT22;8301;51.440;6.610;2022-07-23T15:53:14;26.80;99.90
16384;DHT22;8301;51.440;6.610;2022-07-23T15:55:41;26.80;99.90
16384;DHT22;8301;51.440;6.610;2022-07-23T15:58:10;26.80;99.90
16384;DHT22;8301;51.440;6.610;2022-07-23T16:00:37;26.80;99.90
16384;DHT22;8301;51.440;6.610;2022-07-23T16:03:06;26.60;99.90
16384;DHT22;8301;51.440;6.610;2022-07-23T16:05:33;26.10;99.90
16384;DHT22;8301;51.440;6.610;2022-07-23T16:08:01;26.30;99.90
16384;DHT22;8301;51.440;6.610;2022-07-23T16:10:28;25.80;99.90
16384;DHT22;8301;51.440;6.610;2022-07-23T16:12:55;25.50;99.90
16384;DHT22;8301;51.440;6.610;2022-07-23T16:15:22;25.70;99.90
16384;DHT22;8301;51.440;6.610;2022-07-23T16:17:49;25.60;99.90
16384;DHT22;8301;51.440;6.610;2022-07-23T16:20:16;25.60;99.90
16384;DHT22;8301;51.440;6.610;2022-07-23T16:22:43;25.60;99.90
16384;DHT22;8301;51.440;6.610;2022-07-23T16:25:10;25.50;99.90
16384;DHT22;8301;51.440;6.610;2022-07-23T16:30:14;25.80;99.90
16384;DHT22;8301;51.440;6.610;2022-07-23T16:32:49;25.70;99.90
16384;DHT22;8301;51.440;6.610;2022-07-23T16:35:17;25.80;99.90
16384;DHT22;8301;51.440;6.610;2022-07-23T16:37:51;25.80;99.90
16384;DHT22;8301;51.440;6.610;2022-07-23T16:40:18;25.70;99.90
16384;DHT22;8301;51.440;6.610;2022-07-23T16:45:12;25.80;99.90
16384;DHT22;8301;51.440;6.610;2022-07-23T16:47:39;25.80;99.90
16384;DHT22;8301;51.440;6.610;2022-07-23T16:50:07;25.90;99.90
16384;DHT22;8301;51.440;6.610;2022-07-23T16:52:35;25.70;99.90
16384;DHT22;8301;51.440;6.610;2022-07-23T16:55:04;25.70;99.90
16384;DHT22;8301;51.440;6.610;2022-07-23T16:57:31;25.60;99.90
16384;DHT22;8301;51.440;6.610;2022-07-23T16:59:58;25.50;99.90
16384;DHT22;8301;51.440;6.610;2022-07-23T17:02:25;25.50;99.90
16384;DHT22;8301;51.440;6.610;2022-07-23T17:04:52;25.60;99.90
16384;DHT22;8301;51.440;6.610;2022-07-23T17:07:19;25.40;99.90
16384;DHT22;8301;51.440;6.610;2022-07-23T17:09:46;25.40;99.90
16384;DHT22;8301;51.440;6.610;2022-07-23T17:12:14;25.40;99.90
16384;DHT22;8301;51.440;6.610;2022-07-23T17:14:41;25.30;99.90
16384;DHT22;8301;51.440;6.610;2022-07-23T17:17:07;25.20;99.90